»·PEaware :: UPS3032 KSFO-KONT

UPS3032 :: KSFO-KONT

FLIGHT INFORMATION

Flight Status: Arrived
Operator:
United Parcel Service
More flights by this operator :: More flights under this callsign
Pilot: Kyle M. (9350)
Aircraft: AIRBUS A300B4-600
(A306)
More flights by this aircraft type
Origin: KSFO San Francisco Intl
United States
Destination: KONT Ontario Intl
United States
More flights between these airports :: More routes between these airports
Route: +WESLA4 LOSHN EHF ZIGGY7
File this flight plan on PilotEdge
Remarks: RMK / SIMBRIEF
Altitude:
(Current/Filed)
33,000ft
Speed:
(Current/Filed)
459kts
Departed: 12-Aug-20 07:13 PM
Arrived: 12-Aug-20 08:12 PM
Distance/Time
Traveled:
316nm/0:59
Distance/Time
To Go:
Arrived

Flight Plot

Page will automatically refresh every two minutes.

Flight plan parsing failed; only flown route is shown


Map Options




Map Legend


Flown Route
Filed Route
Departure Airport
Arrival Airport
Navaid (VOR, NDB)
Fix

Horizontal Profiles

Position Reports

Time Latitude Longitude Heading Altitude Ground
Speed
12-Aug-20 18:45 37.636634 -122.387983 60 21ft 0kts
12-Aug-20 18:46 37.636634 -122.387983 60 21ft 0kts
12-Aug-20 18:47 37.636634 -122.387983 60 21ft 0kts
12-Aug-20 18:48 37.636634 -122.387983 60 21ft 0kts
12-Aug-20 18:49 37.636634 -122.387983 60 21ft 0kts
12-Aug-20 18:50 37.636634 -122.387983 60 21ft 0kts
12-Aug-20 18:51 37.636634 -122.387983 60 21ft 0kts
12-Aug-20 18:52 37.636634 -122.387983 60 21ft 0kts
12-Aug-20 18:52 37.636634 -122.387983 60 21ft 0kts
12-Aug-20 18:54 37.636634 -122.387983 60 21ft 0kts
12-Aug-20 18:54 37.636634 -122.387983 60 21ft 0kts
12-Aug-20 18:55 37.636634 -122.387983 60 21ft 0kts
12-Aug-20 18:57 37.636634 -122.387983 60 21ft 0kts
12-Aug-20 18:57 37.636634 -122.387983 60 21ft 0kts
12-Aug-20 18:58 37.636524 -122.388223 60 21ft 2kts
12-Aug-20 18:59 37.636484 -122.388877 147 21ft 0kts
12-Aug-20 19:00 37.636514 -122.388900 149 21ft 0kts
12-Aug-20 19:01 37.636514 -122.388900 149 21ft 0kts
12-Aug-20 19:02 37.636514 -122.388900 149 21ft 0kts
12-Aug-20 19:03 37.634715 -122.388530 225 20ft 13kts
12-Aug-20 19:04 37.632984 -122.391712 172 20ft 9kts
12-Aug-20 19:05 37.630219 -122.392182 157 19ft 12kts
12-Aug-20 19:06 37.627656 -122.387134 118 18ft 21kts
12-Aug-20 19:07 37.624924 -122.380583 116 19ft 20kts
12-Aug-20 19:08 37.622246 -122.374307 113 21ft 18kts
12-Aug-20 19:09 37.619610 -122.367921 118 21ft 21kts
12-Aug-20 19:10 37.616763 -122.361157 116 21ft 21kts
12-Aug-20 19:11 37.614693 -122.359929 296 22ft 13kts
12-Aug-20 19:12 37.627391 -122.390364 298 749ft 200kts
12-Aug-20 19:13 37.636637 -122.460239 225 4494ft 244kts
12-Aug-20 19:14 37.568912 -122.473599 181 9190ft 267kts
12-Aug-20 19:15 37.488812 -122.455315 152 12465ft 346kts
12-Aug-20 19:16 37.417056 -122.359426 132 16561ft 393kts
12-Aug-20 19:17 37.345307 -122.248602 132 18938ft 413kts
12-Aug-20 19:18 37.271063 -122.133773 131 22102ft 430kts
12-Aug-20 19:19 37.193953 -122.014750 131 22950ft 436kts
12-Aug-20 19:20 37.117034 -121.896391 132 22943ft 436kts
12-Aug-20 19:21 37.038811 -121.776495 132 24514ft 448kts
12-Aug-20 19:22 36.958275 -121.653504 132 26763ft 462kts
12-Aug-20 19:23 36.875049 -121.526870 132 29172ft 473kts
12-Aug-20 19:24 36.792571 -121.401859 133 32579ft 461kts
12-Aug-20 19:25 36.711276 -121.279238 134 32944ft 455kts
12-Aug-20 19:26 36.630747 -121.158211 134 32940ft 456kts
12-Aug-20 19:27 36.549437 -121.036428 134 32926ft 458kts
12-Aug-20 19:28 36.467876 -120.915287 135 32899ft 458kts
12-Aug-20 19:29 36.386181 -120.794315 134 32899ft 459kts
12-Aug-20 19:30 36.304683 -120.672903 134 32900ft 459kts
12-Aug-20 19:31 36.223168 -120.551560 134 32900ft 459kts
12-Aug-20 19:32 36.141359 -120.430095 135 32900ft 459kts
12-Aug-20 19:33 36.059241 -120.308572 135 32893ft 457kts
12-Aug-20 19:34 35.977612 -120.188244 136 32894ft 458kts
12-Aug-20 19:35 35.895902 -120.068248 136 32894ft 458kts
12-Aug-20 19:36 35.824342 -119.936467 122 32884ft 469kts
12-Aug-20 19:37 35.766105 -119.792758 121 32885ft 470kts
12-Aug-20 19:38 35.708316 -119.648469 121 32885ft 470kts
12-Aug-20 19:39 35.650691 -119.504703 121 32886ft 470kts
12-Aug-20 19:40 35.592515 -119.360029 121 32886ft 469kts
12-Aug-20 19:41 35.533469 -119.215413 125 32878ft 467kts
12-Aug-20 19:42 35.469972 -119.079638 145 32904ft 450kts
12-Aug-20 19:43 35.371323 -118.987356 148 32945ft 446kts
12-Aug-20 19:44 35.271339 -118.893061 148 33043ft 457kts
12-Aug-20 19:45 35.170917 -118.798022 148 33127ft 457kts
12-Aug-20 19:46 35.076311 -118.701838 138 31250ft 437kts
12-Aug-20 19:47 34.997729 -118.592783 135 30166ft 426kts
12-Aug-20 19:48 34.922075 -118.483105 134 29007ft 421kts
12-Aug-20 19:49 34.846363 -118.373115 133 27178ft 418kts
12-Aug-20 19:50 34.773240 -118.266984 133 25263ft 411kts
12-Aug-20 19:51 34.700536 -118.161699 133 23350ft 401kts
12-Aug-20 19:52 34.632541 -118.057325 124 21572ft 392kts
12-Aug-20 19:53 34.578432 -117.944818 122 19828ft 381kts
12-Aug-20 19:54 34.527596 -117.834440 121 18139ft 369kts
12-Aug-20 19:55 34.478603 -117.727761 121 16510ft 357kts
12-Aug-20 19:56 34.431618 -117.625516 121 15408ft 331kts
12-Aug-20 19:57 34.387676 -117.530817 121 14295ft 314kts
12-Aug-20 19:58 34.344703 -117.438358 121 14153ft 318kts
12-Aug-20 19:59 34.298840 -117.347877 142 14115ft 311kts
12-Aug-20 20:00 34.218109 -117.322936 189 13527ft 299kts
12-Aug-20 20:01 34.140329 -117.339928 191 11694ft 265kts
12-Aug-20 20:02 34.071619 -117.355359 191 9662ft 240kts
12-Aug-20 20:03 34.007832 -117.365046 159 7678ft 228kts
12-Aug-20 20:04 33.996804 -117.298925 44 6358ft 239kts
12-Aug-20 20:05 34.056243 -117.305438 325 5073ft 229kts
12-Aug-20 20:06 34.054391 -117.367591 266 4409ft 202kts
12-Aug-20 20:07 34.054939 -117.432059 268 3399ft 173kts
12-Aug-20 20:08 34.054956 -117.482617 269 2589ft 141kts
12-Aug-20 20:09 34.054960 -117.527470 269 1813ft 130kts
12-Aug-20 20:10 34.054897 -117.570870 269 1167ft 130kts
12-Aug-20 20:11 34.054973 -117.600717 270 933ft 19kts
12-Aug-20 20:12 34.053869 -117.602517 184 931ft 3kts
12-Aug-20 20:13 34.051776 -117.601291 82 924ft 5kts

Navigation Log

Ident Type
Flight plan parsing failed, navigation log unavailable